createdAt,value
2022-09-07T00:00:47.389Z,7.90
2022-09-07T00:03:15.060Z,6.15
2022-09-07T00:05:46.477Z,8.73
2022-09-07T00:08:14.581Z,9.40
2022-09-07T00:10:42.613Z,9.00
2022-09-07T00:13:10.485Z,6.28
2022-09-07T00:15:40.858Z,6.40
2022-09-07T00:18:08.583Z,7.63
2022-09-07T00:20:36.142Z,8.30
2022-09-07T00:23:03.679Z,6.85
2022-09-07T00:25:32.110Z,8.35
2022-09-07T00:28:00.216Z,8.63
2022-09-07T00:30:27.867Z,6.47
2022-09-07T00:32:55.570Z,8.68
2022-09-07T00:35:23.169Z,7.68
2022-09-07T00:37:50.704Z,8.38
2022-09-07T00:40:18.657Z,6.70
2022-09-07T00:42:46.140Z,7.68
2022-09-07T00:45:18.675Z,10.40
2022-09-07T00:47:55.592Z,5.53
2022-09-07T00:50:26.823Z,4.70
2022-09-07T00:52:57.045Z,7.07
2022-09-07T00:55:24.953Z,7.40
2022-09-07T00:57:54.716Z,6.22
2022-09-07T01:00:23.835Z,8.10
2022-09-07T01:02:52.548Z,5.88
2022-09-07T01:05:30.244Z,7.57
2022-09-07T01:07:58.454Z,9.82
2022-09-07T01:10:27.158Z,8.52
2022-09-07T01:12:54.782Z,11.05
2022-09-07T01:15:24.949Z,7.15
2022-09-07T01:17:57.352Z,6.05
2022-09-07T01:20:39.800Z,6.05
2022-09-07T01:23:22.727Z,2.90
2022-09-07T01:26:08.803Z,4.15
2022-09-07T01:28:37.019Z,3.42
2022-09-07T01:31:19.922Z,4.63
2022-09-07T01:33:53.601Z,3.83
2022-09-07T01:36:21.263Z,5.22
2022-09-07T01:38:48.805Z,3.97
2022-09-07T01:41:19.722Z,3.17
2022-09-07T01:43:51.346Z,3.85
2022-09-07T01:46:25.435Z,3.47
2022-09-07T01:48:55.176Z,4.13
2022-09-07T01:51:24.071Z,6.45
2022-09-07T01:53:53.799Z,4.13
2022-09-07T01:56:25.423Z,3.30
2022-09-07T01:58:57.785Z,4.30
2022-09-07T02:01:27.805Z,5.25
2022-09-07T02:04:04.603Z,6.07
2022-09-07T02:06:43.350Z,8.98
2022-09-07T02:09:13.984Z,10.13
2022-09-07T02:11:43.899Z,10.60
2022-09-07T02:14:21.259Z,10.18
2022-09-07T02:17:12.362Z,11.88
2022-09-07T02:19:43.767Z,11.82
2022-09-07T02:22:14.189Z,12.02
2022-09-07T02:24:43.833Z,12.68
2022-09-07T02:27:14.338Z,13.10
2022-09-07T02:29:43.664Z,11.43
2022-09-07T02:32:11.218Z,13.63
2022-09-07T02:34:38.999Z,12.13
2022-09-07T02:37:07.868Z,14.60
2022-09-07T02:39:35.865Z,11.45
2022-09-07T02:42:04.439Z,11.57
2022-09-07T02:44:34.730Z,13.23
2022-09-07T02:47:05.056Z,11.48
2022-09-07T02:49:51.430Z,13.85
2022-09-07T02:52:30.496Z,12.55
2022-09-07T02:54:58.185Z,12.75
2022-09-07T02:57:30.064Z,13.50
2022-09-07T03:00:08.050Z,12.90
2022-09-07T03:03:05.122Z,13.27
2022-09-07T03:05:41.922Z,14.48
2022-09-07T03:08:14.701Z,15.80
2022-09-07T03:10:42.707Z,17.05
2022-09-07T03:13:19.844Z,15.88
2022-09-07T03:15:48.313Z,14.95
2022-09-07T03:18:17.164Z,14.23
2022-09-07T03:20:44.907Z,12.63
2022-09-07T03:23:12.815Z,15.73
2022-09-07T03:25:40.590Z,19.10
2022-09-07T03:28:08.149Z,17.92
2022-09-07T03:30:35.867Z,17.63
2022-09-07T03:33:03.473Z,19.38
2022-09-07T03:35:31.070Z,19.80
2022-09-07T03:37:58.847Z,19.88
2022-09-07T03:40:26.335Z,17.30
2022-09-07T03:42:54.040Z,22.48
2022-09-07T03:45:21.678Z,18.70
2022-09-07T03:47:51.135Z,17.63
2022-09-07T03:50:18.679Z,20.17
2022-09-07T03:52:46.318Z,20.85
2022-09-07T03:55:14.029Z,19.23
2022-09-07T03:57:42.825Z,23.27
2022-09-07T04:00:10.900Z,23.58
2022-09-07T04:02:41.473Z,20.77
2022-09-07T04:05:09.408Z,19.17
2022-09-07T04:07:37.096Z,17.48
2022-09-07T04:10:04.785Z,19.08
2022-09-07T04:12:32.299Z,18.42
2022-09-07T04:15:00.173Z,18.65
2022-09-07T04:17:27.760Z,20.40
2022-09-07T04:19:55.794Z,20.98
2022-09-07T04:22:23.612Z,22.77
2022-09-07T04:24:51.557Z,18.25
2022-09-07T04:27:19.085Z,20.42
2022-09-07T04:29:48.182Z,19.95
2022-09-07T04:32:16.129Z,21.23
2022-09-07T04:34:44.124Z,22.13
2022-09-07T04:37:12.651Z,20.75
2022-09-07T04:39:40.245Z,21.40
2022-09-07T04:42:07.912Z,23.25
2022-09-07T04:44:35.786Z,17.48
2022-09-07T04:47:03.308Z,18.42
2022-09-07T04:49:30.857Z,19.42
2022-09-07T04:51:58.488Z,18.67
2022-09-07T04:54:26.662Z,18.15
2022-09-07T04:56:54.276Z,22.00
2022-09-07T04:59:21.958Z,19.95
2022-09-07T05:01:49.546Z,19.05
2022-09-07T05:04:17.027Z,19.77
2022-09-07T05:06:44.680Z,20.98
2022-09-07T05:09:12.428Z,19.10
2022-09-07T05:11:39.873Z,22.00
2022-09-07T05:14:08.231Z,19.40
2022-09-07T05:16:36.066Z,18.65
2022-09-07T05:19:05.092Z,18.42
2022-09-07T05:21:33.971Z,19.98
2022-09-07T05:24:02.167Z,17.45
2022-09-07T05:26:30.605Z,18.02
2022-09-07T05:31:49.969Z,18.13
2022-09-07T05:34:33.120Z,19.00
2022-09-07T05:37:01.378Z,16.08
2022-09-07T05:39:30.912Z,19.15
2022-09-07T05:41:58.471Z,17.20
2022-09-07T05:47:13.871Z,19.60
2022-09-07T05:49:41.422Z,17.45
2022-09-07T05:52:08.965Z,18.13
2022-09-07T05:54:36.490Z,17.52
2022-09-07T05:57:04.259Z,16.02
2022-09-07T05:59:31.808Z,16.30
2022-09-07T06:01:59.566Z,19.90
2022-09-07T06:04:27.174Z,16.92
2022-09-07T06:12:30.164Z,20.45
2022-09-07T06:14:57.901Z,17.00
2022-09-07T06:17:25.668Z,19.52
2022-09-07T06:19:53.279Z,19.02
2022-09-07T06:22:21.174Z,15.90
2022-09-07T06:24:48.824Z,17.45
2022-09-07T06:27:16.438Z,17.42
2022-09-07T06:29:44.040Z,17.95
2022-09-07T06:34:59.549Z,16.98
2022-09-07T06:37:27.167Z,16.27
2022-09-07T06:39:54.848Z,15.45
2022-09-07T06:42:22.534Z,17.55
2022-09-07T06:44:53.488Z,16.05
2022-09-07T06:47:22.290Z,14.13
2022-09-07T06:49:49.949Z,15.77
2022-09-07T06:52:17.516Z,17.13
2022-09-07T06:55:00.941Z,16.80
2022-09-07T06:57:29.119Z,15.65
2022-09-07T06:59:56.747Z,15.43
2022-09-07T07:02:24.299Z,13.50
2022-09-07T07:04:51.818Z,14.98
2022-09-07T07:07:19.410Z,17.10
2022-09-07T07:09:46.935Z,13.20
2022-09-07T07:12:14.559Z,15.98
2022-09-07T07:14:44.914Z,13.07
2022-09-07T07:17:13.081Z,14.13
2022-09-07T07:19:40.867Z,9.50
2022-09-07T07:22:29.196Z,11.38
2022-09-07T07:24:56.175Z,12.48
2022-09-07T07:27:23.673Z,10.85
2022-09-07T07:29:52.474Z,9.38
2022-09-07T07:32:20.202Z,14.20
2022-09-07T07:34:48.177Z,10.82
2022-09-07T07:37:16.303Z,10.18
2022-09-07T07:42:32.245Z,12.68
2022-09-07T07:47:54.079Z,12.27
2022-09-07T07:50:37.262Z,10.90
2022-09-07T07:55:53.088Z,11.05
2022-09-07T07:58:20.928Z,10.52
2022-09-07T08:00:56.453Z,11.10
2022-09-07T08:03:24.982Z,13.30
2022-09-07T08:05:52.723Z,11.52
2022-09-07T08:08:20.672Z,13.43
2022-09-07T08:10:48.389Z,13.27
2022-09-07T08:13:16.613Z,13.90
2022-09-07T08:15:47.335Z,10.60
2022-09-07T08:18:15.702Z,12.82
2022-09-07T08:20:43.689Z,12.15
2022-09-07T08:23:11.862Z,11.85
2022-09-07T08:25:39.727Z,12.55
2022-09-07T08:28:07.420Z,15.30
2022-09-07T08:30:34.824Z,15.10
2022-09-07T08:33:02.002Z,13.57
2022-09-07T08:35:29.215Z,13.43
2022-09-07T08:37:56.292Z,15.60
2022-09-07T08:40:23.436Z,19.20
2022-09-07T08:43:15.834Z,14.10
2022-09-07T08:45:50.542Z,11.40
2022-09-07T08:48:22.585Z,11.45
2022-09-07T08:51:06.908Z,16.10
2022-09-07T08:53:40.225Z,11.75
2022-09-07T08:56:12.462Z,15.10
2022-09-07T08:58:50.129Z,14.02
2022-09-07T09:01:35.475Z,13.43
2022-09-07T09:04:20.761Z,12.07
2022-09-07T09:07:16.828Z,12.05
2022-09-07T09:10:20.636Z,10.07
2022-09-07T09:13:11.934Z,12.20
2022-09-07T09:16:08.540Z,15.57
2022-09-07T09:19:00.099Z,8.40
2022-09-07T09:21:27.537Z,15.63
2022-09-07T09:24:02.070Z,14.23
2022-09-07T09:26:34.002Z,10.00
2022-09-07T09:29:21.464Z,11.20
2022-09-07T09:31:48.562Z,12.38
2022-09-07T09:34:17.888Z,10.45
2022-09-07T09:36:53.765Z,10.63
2022-09-07T09:39:32.578Z,11.30
2022-09-07T09:42:14.380Z,8.60
2022-09-07T09:44:42.757Z,12.30
2022-09-07T09:47:32.567Z,13.63
2022-09-07T09:50:07.028Z,11.20
2022-09-07T09:52:45.393Z,11.45
2022-09-07T09:55:34.896Z,11.90
2022-09-07T10:03:57.654Z,8.45
2022-09-07T10:06:27.084Z,10.38
2022-09-07T10:08:54.134Z,11.70
2022-09-07T10:14:42.162Z,9.93
2022-09-07T10:17:25.542Z,11.80
2022-09-07T10:19:52.794Z,9.60
2022-09-07T10:22:22.487Z,12.95
2022-09-07T10:24:50.886Z,10.70
2022-09-07T10:27:38.740Z,9.77
2022-09-07T10:30:16.673Z,7.80
2022-09-07T10:33:08.249Z,10.60
2022-09-07T10:35:45.411Z,10.55
2022-09-07T10:38:17.526Z,12.90
2022-09-07T10:40:52.920Z,9.07
2022-09-07T10:43:32.458Z,12.52
2022-09-07T10:49:27.462Z,11.10
2022-09-07T10:52:24.174Z,7.28
2022-09-07T10:54:54.525Z,10.85
2022-09-07T10:57:28.985Z,6.93
2022-09-07T11:00:15.631Z,8.48
2022-09-07T11:06:00.889Z,10.90
2022-09-07T11:12:05.108Z,15.70
2022-09-07T11:14:42.828Z,9.43
2022-09-07T11:17:17.181Z,8.00
2022-09-07T11:22:20.524Z,9.75
2022-09-07T11:25:36.336Z,8.80
2022-09-07T11:28:13.551Z,9.65
2022-09-07T11:30:46.519Z,9.85
2022-09-07T11:33:23.756Z,11.02
2022-09-07T11:35:56.061Z,7.60
2022-09-07T11:38:34.028Z,10.57
2022-09-07T11:41:29.692Z,9.32
2022-09-07T11:44:13.536Z,9.02
2022-09-07T11:46:53.146Z,7.90
2022-09-07T11:49:21.216Z,8.25
2022-09-07T11:51:53.680Z,7.93
2022-09-07T11:54:40.033Z,9.32
2022-09-07T11:57:19.903Z,6.88
2022-09-07T12:00:18.500Z,9.35
2022-09-07T12:03:04.864Z,8.95
2022-09-07T12:05:54.239Z,10.43
2022-09-07T12:08:39.799Z,6.72
2022-09-07T12:11:44.157Z,8.98
2022-09-07T12:14:11.211Z,8.85
2022-09-07T12:17:07.396Z,8.35
2022-09-07T12:19:34.614Z,9.32
2022-09-07T12:22:02.098Z,11.20
2022-09-07T12:24:44.921Z,9.23
2022-09-07T12:27:21.573Z,12.57
2022-09-07T12:29:57.137Z,10.00
2022-09-07T12:32:57.629Z,8.93
2022-09-07T12:35:28.689Z,9.82
2022-09-07T12:38:01.113Z,6.72
2022-09-07T12:40:32.298Z,5.60
2022-09-07T12:43:14.278Z,8.38
2022-09-07T12:45:42.001Z,8.32
2022-09-07T12:48:17.901Z,7.15
2022-09-07T12:50:57.041Z,7.00
2022-09-07T12:53:57.784Z,6.05
2022-09-07T12:59:40.900Z,7.82
2022-09-07T13:02:22.319Z,7.55
2022-09-07T13:04:58.286Z,6.47
2022-09-07T13:08:04.316Z,7.28
2022-09-07T13:10:40.881Z,9.30
2022-09-07T13:14:01.900Z,7.03
2022-09-07T13:16:11.715Z,7.82
2022-09-07T13:18:43.303Z,8.30
2022-09-07T13:21:11.924Z,8.13
2022-09-07T13:23:43.046Z,10.48
2022-09-07T13:26:32.519Z,11.15
2022-09-07T13:29:04.623Z,8.35
2022-09-07T13:31:51.715Z,6.68
2022-09-07T13:35:04.726Z,3.90
2022-09-07T13:37:45.102Z,7.25
2022-09-07T13:40:19.013Z,7.75
2022-09-07T13:42:47.317Z,8.80
2022-09-07T13:45:28.695Z,8.75
2022-09-07T13:48:13.819Z,7.80
2022-09-07T13:50:55.401Z,7.45
2022-09-07T13:53:45.355Z,6.88
2022-09-07T13:56:30.267Z,10.68
2022-09-07T13:58:57.672Z,11.23
2022-09-07T14:01:27.018Z,8.48
2022-09-07T14:04:07.375Z,6.38
2022-09-07T14:06:36.736Z,6.93
2022-09-07T14:09:09.111Z,7.75
2022-09-07T14:11:36.164Z,9.98
2022-09-07T14:14:17.370Z,10.30
2022-09-07T14:16:54.267Z,6.78
2022-09-07T14:19:24.959Z,9.45
2022-09-07T14:21:59.447Z,10.45
2022-09-07T14:24:34.370Z,9.40
2022-09-07T14:27:02.272Z,8.60
2022-09-07T14:29:34.816Z,7.78
2022-09-07T14:32:03.894Z,9.30
2022-09-07T14:34:34.747Z,5.63
2022-09-07T14:37:12.468Z,8.80
2022-09-07T14:39:41.361Z,6.05
2022-09-07T14:42:12.022Z,9.65
2022-09-07T14:44:45.383Z,10.93
2022-09-07T14:47:29.121Z,5.57
2022-09-07T14:50:05.034Z,10.45
2022-09-07T14:52:42.387Z,5.60
2022-09-07T14:55:31.260Z,8.45
2022-09-07T14:58:13.708Z,8.90
2022-09-07T15:00:46.562Z,9.10
2022-09-07T15:03:29.333Z,8.73
2022-09-07T15:06:00.827Z,5.85
2022-09-07T15:08:46.024Z,6.90
2022-09-07T15:14:11.818Z,8.48
2022-09-07T15:16:43.042Z,6.55
2022-09-07T15:19:16.391Z,8.00
2022-09-07T15:21:45.110Z,6.50
2022-09-07T15:24:12.444Z,7.15
2022-09-07T15:29:29.383Z,8.10
2022-09-07T15:32:03.800Z,6.93
2022-09-07T15:34:32.470Z,6.95
2022-09-07T15:37:01.030Z,7.68
2022-09-07T15:39:29.954Z,10.02
2022-09-07T15:41:59.047Z,7.38
2022-09-07T15:44:28.651Z,13.27
2022-09-07T15:49:50.113Z,11.57
2022-09-07T15:52:18.720Z,6.95
2022-09-07T15:54:46.731Z,6.43
2022-09-07T16:00:00.962Z,6.93
2022-09-07T16:05:16.231Z,8.15
2022-09-07T16:10:31.725Z,11.05
2022-09-07T16:13:01.846Z,10.65
2022-09-07T16:15:30.038Z,5.97
2022-09-07T16:17:57.567Z,10.52
2022-09-07T16:20:24.824Z,6.90
2022-09-07T16:25:41.753Z,10.30
2022-09-07T16:28:09.313Z,8.45
2022-09-07T16:30:40.076Z,12.95
2022-09-07T16:33:07.743Z,9.80
2022-09-07T16:35:34.922Z,8.98
2022-09-07T16:40:51.196Z,9.35
2022-09-07T16:43:19.047Z,7.63
2022-09-07T16:48:36.208Z,10.05
2022-09-07T16:51:05.008Z,10.48
2022-09-07T16:53:35.691Z,8.80
2022-09-07T16:56:05.386Z,18.33
2022-09-07T16:58:37.645Z,11.98
2022-09-07T17:01:06.965Z,8.23
2022-09-07T17:03:35.516Z,10.25
2022-09-07T17:06:03.949Z,7.20
2022-09-07T17:08:32.356Z,6.47
2022-09-07T17:11:04.909Z,8.02
2022-09-07T17:13:33.715Z,11.02
2022-09-07T17:16:10.532Z,8.80
2022-09-07T17:21:28.863Z,8.13
2022-09-07T17:23:56.274Z,17.73
2022-09-07T17:26:26.681Z,17.70
2022-09-07T17:28:59.568Z,16.20
2022-09-07T17:34:18.059Z,10.80
2022-09-07T17:36:45.319Z,15.15
2022-09-07T17:39:17.572Z,15.85
2022-09-07T17:41:46.372Z,8.13
2022-09-07T17:44:13.517Z,16.45
2022-09-07T17:46:40.954Z,21.17
2022-09-07T17:49:12.483Z,19.50
2022-09-07T17:51:40.085Z,26.45
2022-09-07T17:54:11.644Z,24.15
2022-09-07T17:56:40.236Z,13.95
2022-09-07T18:01:55.609Z,9.55
2022-09-07T18:04:23.221Z,9.07
2022-09-07T18:06:50.498Z,9.63
2022-09-07T18:09:19.606Z,7.38
2022-09-07T18:11:48.741Z,6.13
2022-09-07T18:14:17.332Z,5.43
2022-09-07T18:16:46.064Z,5.63
2022-09-07T18:19:13.917Z,5.82
2022-09-07T18:21:42.821Z,6.93
2022-09-07T18:24:16.855Z,7.28
2022-09-07T18:26:50.174Z,6.43
2022-09-07T18:29:31.322Z,8.90
2022-09-07T18:32:02.638Z,6.32
2022-09-07T18:34:31.776Z,3.92
2022-09-07T18:36:59.922Z,5.57
2022-09-07T18:39:27.519Z,6.20
2022-09-07T18:41:55.475Z,5.28
2022-09-07T18:47:21.721Z,8.93
2022-09-07T18:49:51.607Z,7.55
2022-09-07T18:55:08.618Z,9.63
2022-09-07T18:57:36.557Z,9.00
2022-09-07T19:00:06.744Z,8.38
2022-09-07T19:02:33.990Z,7.78
2022-09-07T19:07:48.722Z,10.90
2022-09-07T19:10:16.928Z,8.32
2022-09-07T19:12:46.128Z,10.05
2022-09-07T19:15:14.042Z,8.95
2022-09-07T19:17:41.259Z,12.90
2022-09-07T19:20:09.128Z,9.68
2022-09-07T19:22:36.239Z,7.18
2022-09-07T19:25:03.787Z,8.70
2022-09-07T19:27:33.035Z,8.32
2022-09-07T19:30:00.263Z,11.27
2022-09-07T19:32:27.518Z,6.65
2022-09-07T19:34:55.447Z,8.98
2022-09-07T19:37:25.510Z,7.22
2022-09-07T19:39:56.051Z,10.68
2022-09-07T19:42:24.164Z,9.88
2022-09-07T19:44:52.084Z,7.97
2022-09-07T19:47:19.616Z,8.30
2022-09-07T19:49:47.002Z,5.63
2022-09-07T19:52:14.151Z,9.77
2022-09-07T19:54:41.223Z,9.30
2022-09-07T19:57:08.552Z,8.32
2022-09-07T19:59:35.755Z,11.07
2022-09-07T20:02:03.010Z,8.98
2022-09-07T20:04:30.273Z,7.00
2022-09-07T20:06:57.638Z,10.20
2022-09-07T20:09:25.805Z,7.93
2022-09-07T20:11:53.148Z,8.60
2022-09-07T20:14:20.379Z,7.82
2022-09-07T20:16:48.005Z,8.05
2022-09-07T20:19:15.373Z,5.80
2022-09-07T20:21:43.252Z,5.13
2022-09-07T20:24:14.606Z,5.22
2022-09-07T20:26:41.922Z,7.95
2022-09-07T20:31:58.301Z,9.07
2022-09-07T20:34:26.978Z,7.75
2022-09-07T20:36:54.854Z,6.55
2022-09-07T20:39:22.235Z,5.68
2022-09-07T20:41:49.695Z,8.70
2022-09-07T20:44:17.179Z,7.68
2022-09-07T20:46:44.612Z,5.25
2022-09-07T20:49:11.865Z,6.10
2022-09-07T20:51:39.094Z,5.25
2022-09-07T20:54:07.213Z,7.22
2022-09-07T20:56:34.546Z,6.93
2022-09-07T20:59:03.594Z,7.65
2022-09-07T21:01:32.977Z,9.18
2022-09-07T21:04:01.083Z,6.07
2022-09-07T21:06:30.881Z,9.90
2022-09-07T21:08:59.684Z,7.97
2022-09-07T21:11:32.524Z,8.50
2022-09-07T21:14:01.507Z,11.25
2022-09-07T21:16:29.393Z,7.47
2022-09-07T21:18:59.428Z,7.78
2022-09-07T21:21:28.367Z,9.02
2022-09-07T21:23:57.187Z,7.95
2022-09-07T21:26:24.951Z,8.02
2022-09-07T21:29:00.737Z,8.95
2022-09-07T21:31:29.742Z,5.47
2022-09-07T21:33:58.744Z,8.07
2022-09-07T21:36:26.529Z,6.07
2022-09-07T21:38:54.526Z,8.75
2022-09-07T21:41:23.618Z,6.43
2022-09-07T21:43:59.123Z,9.93
2022-09-07T21:46:27.832Z,11.90
2022-09-07T21:48:56.434Z,9.27
2022-09-07T21:51:24.639Z,9.27
2022-09-07T21:53:53.106Z,7.72
2022-09-07T21:56:20.789Z,5.25
2022-09-07T21:58:48.390Z,9.02
2022-09-07T22:01:19.182Z,6.22
2022-09-07T22:03:48.254Z,7.63
2022-09-07T22:06:15.591Z,10.27
2022-09-07T22:08:43.231Z,12.30
2022-09-07T22:11:18.485Z,7.10
2022-09-07T22:13:45.961Z,10.73
2022-09-07T22:16:14.773Z,9.63
2022-09-07T22:18:46.227Z,9.93
2022-09-07T22:21:22.632Z,9.23
2022-09-07T22:23:52.398Z,7.97
2022-09-07T22:26:22.233Z,12.82
2022-09-07T22:28:49.907Z,7.40
2022-09-07T22:31:23.057Z,6.47
2022-09-07T22:33:51.686Z,8.13
2022-09-07T22:36:33.622Z,10.77
2022-09-07T22:39:03.502Z,9.98
2022-09-07T22:41:33.890Z,8.60
2022-09-07T22:44:01.347Z,6.75
2022-09-07T22:46:30.992Z,6.25
2022-09-07T22:48:59.193Z,8.93
2022-09-07T22:51:27.122Z,6.78
2022-09-07T22:53:55.756Z,6.88
2022-09-07T22:56:29.387Z,8.90
2022-09-07T22:58:59.515Z,10.90
2022-09-07T23:01:28.518Z,6.38
2022-09-07T23:03:56.407Z,7.03
2022-09-07T23:06:33.314Z,9.93
2022-09-07T23:09:04.286Z,9.23
2022-09-07T23:11:31.646Z,5.53
2022-09-07T23:14:02.538Z,11.43
2022-09-07T23:16:30.251Z,8.63
2022-09-07T23:18:58.498Z,8.00
2022-09-07T23:21:27.223Z,10.18
2022-09-07T23:23:56.944Z,10.52
2022-09-07T23:26:26.112Z,9.82
2022-09-07T23:29:04.476Z,13.30
2022-09-07T23:31:34.366Z,8.30
2022-09-07T23:34:02.035Z,8.13
2022-09-07T23:36:29.336Z,10.20
2022-09-07T23:38:57.863Z,8.65
2022-09-07T23:41:26.384Z,7.72
2022-09-07T23:43:54.730Z,7.88
2022-09-07T23:46:22.329Z,6.80
2022-09-07T23:48:49.778Z,8.40
2022-09-07T23:51:22.786Z,6.95
2022-09-07T23:53:51.847Z,8.05
2022-09-07T23:56:19.512Z,6.65
2022-09-07T23:58:46.733Z,7.95
